Tropical Cyclones
[Index]
Main Index Home Page Stock Weather Photos Extreme Storms Discussion Storm News and Storm Chasing Reports Tropical Cyclones / Hurricanes / Typhoons Weather Data and Links Wild Fires / Bushfires Weather Observation Techniques Weather Picture Catalogue Tornado Pictures and Reports Stock Video Footage and DVDs for sale
Season 1981-1982 Tropical Cyclone CHRIS-DAMIA Track Map
Season 1981-1982 Summaries: [BoM-AU] [JTWC-AU] [JTWC-SIO] [JTWC-SPAC] [JTWC-SH]
<<- Previous TC | JTWC 1981-1982 Season | Next TC ->>

click for intensity scale information  Lat/long Grid: Show Hide

 Date Labels: Show Hide

Joint Typhoon Warning Centre Cyclone Data

Name: CHRIS-DAMIA

06 Jan 1982 00:00 UTC to 21 Jan 1982 00:00 UTC

    date/time    lat    long     hPa   cat  kts
1982-01-06 00   12.7   102.9                  20          
1982-01-06 06   12.7   102.4                  25          
1982-01-06 12   12.8   101.8                  25          
1982-01-06 18   12.9   101.2                  25          
1982-01-07 00   13.0   100.4                  25          
1982-01-07 06   13.2    99.2                  25          
1982-01-07 12   13.4    97.9                  30          
1982-01-07 18   13.6    96.7                  30          
1982-01-08 00   13.8    95.5                  35          
1982-01-08 06   13.8    94.4                  35          
1982-01-08 12   13.7    93.4                  35          
1982-01-08 18   13.7    92.2                  35          
1982-01-09 00   13.6    91.0            1     40          
1982-01-09 06   13.5    89.7            1     45          
1982-01-09 12   13.3    88.3            2     55          
1982-01-09 18   13.0    87.0            2     60          
1982-01-10 00   12.8    85.8            2     65          
1982-01-10 06   12.7    84.8            2     70          
1982-01-10 12   12.6    83.8            3     75          
1982-01-10 18   12.6    82.8            3     80          
1982-01-11 00   12.6    81.9            3     85          
1982-01-11 06   12.6    81.2            3     90          
1982-01-11 12   12.7    80.6            3     95          
1982-01-11 18   12.9    79.6            4    100          
1982-01-12 00   13.2    78.5            4    105          
1982-01-12 06   13.5    77.2            4    110          
1982-01-12 12   14.0    75.9            4    115          
1982-01-12 18   14.5    75.0            4    120          
1982-01-13 00   15.1    74.0            4    120          
1982-01-13 06   15.6    72.8            4    115          
1982-01-13 12   16.2    71.6            4    110          
1982-01-13 18   16.7    70.5            4    110          
1982-01-14 00   17.1    69.5            4    115          
1982-01-14 06   17.5    68.7            4    115          
1982-01-14 12   17.9    68.0            4    115          
1982-01-14 18   18.3    67.3            4    115          
1982-01-15 00   18.7    66.6            4    110          
1982-01-15 06   19.0    66.0            4    105          
1982-01-15 12   19.2    65.4            4    100          
1982-01-15 18   19.3    65.1            3     95          
1982-01-16 00   19.4    64.7            3     90          
1982-01-16 06   19.6    64.1            3     85          
1982-01-16 12   19.7    63.4            3     80          
1982-01-16 18   19.7    62.8            2     70          
1982-01-17 00   19.7    62.1            2     65          
1982-01-17 06   19.8    61.9            2     65          
1982-01-17 12   19.9    61.8            2     60          
1982-01-17 18   20.2    60.8            2     60          
1982-01-18 00   20.7    59.9            2     55          
1982-01-18 06   21.4    59.6            1     50          
1982-01-18 12   22.0    59.4            1     45          
1982-01-18 18   22.5    59.3            1     45          
1982-01-19 00   23.0    59.2            1     40          
1982-01-19 06   23.6    59.0            1     40          
1982-01-19 12   24.2    58.8                  35          
1982-01-19 18   24.7    58.7                  35          
1982-01-20 00   25.2    58.6                  30          
1982-01-20 06   25.7    58.5                  30          
1982-01-20 12   26.2    58.4                  25          
1982-01-20 18   26.9    58.4                  25          
1982-01-21 00   28.0    58.5                  25          
Winds are 1-min average.

Tropical cyclone tracks developed by Michael Bath using data from the Joint Typhoon Warning Centre Best Tracks and Google Maps.


[Australian Severe Weather index] [Copyright Notice] [Email Contacts] [Search This Site] [Privacy Policy]
Document: tropical_cyclone_chris-damia.htm Updated: 18 September 2016